Time;durP1;ratioP1;P1;durP2;ratioP2;P2;SDS_P1;SDS_P2;PMS_P1;PMS_P2;Temp;Humidity;BMP_temperature;BMP_pressure;BME280_temperature;BME280_humidity;BME280_pressure;Samples;Min_cycle;Max_cycle;Signal;HPM_P1;HPM_P2
2022/09/13 00:01:04;;;;;;;;;12.25;9.75;;;;;23.71;49.33;100545.91;4975370;28;45425;-50
2022/09/13 00:03:30;;;;;;;;;13.75;9.75;;;;;23.78;49.53;100560.19;4975329;28;45336;-50
2022/09/13 00:05:55;;;;;;;;;8.75;7.75;;;;;23.42;50.01;100519.44;4975069;28;46011;-47
2022/09/13 00:08:22;;;;;;;;;10.25;10.00;;;;;23.69;49.33;100545.31;4974964;28;45263;-51
2022/09/13 00:10:48;;;;;;;;;5.00;2.20;;;;;23.74;49.91;100559.00;4975041;28;45391;-48
2022/09/13 00:13:15;;;;;;;;;10.20;8.80;;;;;23.74;49.87;100559.81;4975318;28;45344;-51
2022/09/13 00:15:43;;;;;;;;;10.20;8.40;;;;;23.74;49.80;100556.28;4974839;28;46281;-47
2022/09/13 00:18:08;;;;;;;;;11.00;9.40;;;;;23.72;50.39;100558.41;4974961;28;45985;-50
2022/09/13 00:20:34;;;;;;;;;8.50;8.00;;;;;23.72;49.58;100575.53;4975087;28;45262;-48
2022/09/13 00:22:59;;;;;;;;;10.75;8.25;;;;;23.71;49.98;100567.63;4975032;28;45238;-53
2022/09/13 00:25:24;;;;;;;;;8.75;8.75;;;;;23.70;50.30;100571.41;4974752;28;45367;-47
2022/09/13 00:27:50;;;;;;;;;9.00;8.00;;;;;23.69;50.33;100562.44;4974743;28;45708;-59
2022/09/13 00:30:15;;;;;;;;;8.75;8.00;;;;;23.69;50.68;100575.19;4974851;28;45414;-57
2022/09/13 00:32:40;;;;;;;;;10.75;9.00;;;;;23.68;50.50;100565.38;4975168;28;45516;-58
2022/09/13 00:35:06;;;;;;;;;7.75;6.25;;;;;23.65;50.88;100562.09;4974582;28;46181;-59
2022/09/13 00:37:33;;;;;;;;;11.20;9.20;;;;;23.62;50.79;100556.25;4974612;28;45358;-58
2022/09/13 00:39:59;;;;;;;;;10.40;7.20;;;;;23.60;51.02;100547.53;4974455;28;45436;-58
2022/09/13 00:42:31;;;;;;;;;10.50;7.75;;;;;23.58;50.80;100547.75;4974667;28;45267;-61
2022/09/13 00:45:17;;;;;;;;;11.00;9.75;;;;;23.55;51.02;100531.94;4974306;28;45808;-59
2022/09/13 00:47:58;;;;;;;;;10.20;9.00;;;;;23.51;50.73;100527.22;4974433;28;45452;-60
2022/09/13 00:50:29;;;;;;;;;13.00;8.20;;;;;23.47;51.43;100526.91;4977644;28;45446;-61
2022/09/13 00:53:05;;;;;;;;;8.50;8.50;;;;;23.46;51.17;100529.81;4977528;28;45350;-62
2022/09/13 00:55:42;;;;;;;;;12.20;10.60;;;;;23.42;50.70;100524.03;4977045;28;46148;-62
2022/09/13 00:58:13;;;;;;;;;12.60;9.60;;;;;23.42;51.37;100527.56;4977360;28;45374;-61
2022/09/13 01:00:39;;;;;;;;;14.50;14.50;;;;;23.40;51.03;100528.91;4977373;28;45317;-59
2022/09/13 01:03:11;;;;;;;;;14.00;11.00;;;;;23.40;51.14;100531.59;4977463;28;45418;-61
2022/09/13 01:05:48;;;;;;;;;14.50;12.75;;;;;23.36;50.98;100533.13;4977262;28;45389;-60
2022/09/13 01:08:21;;;;;;;;;11.40;11.00;;;;;23.36;51.47;100522.28;4977297;28;45275;-53
2022/09/13 01:10:48;;;;;;;;;10.00;10.00;;;;;23.37;51.45;100523.94;4978509;28;45384;-61
2022/09/13 01:13:25;;;;;;;;;12.00;10.50;;;;;23.35;51.28;100517.94;4977625;28;45346;-62
2022/09/13 01:15:51;;;;;;;;;11.75;10.00;;;;;23.30;51.49;100509.63;4977319;28;45446;-61
2022/09/13 01:18:17;;;;;;;;;12.60;9.60;;;;;23.31;51.84;100501.28;4977113;28;45255;-64
2022/09/13 01:20:51;;;;;;;;;12.00;10.00;;;;;23.32;51.63;100508.34;4975823;28;45347;-62
2022/09/13 01:23:42;;;;;;;;;14.75;12.50;;;;;23.33;51.39;100504.56;4977372;28;45324;-62
2022/09/13 01:26:34;;;;;;;;;14.50;10.50;;;;;23.32;51.33;100512.97;4976746;28;46414;-63
2022/09/13 01:29:24;;;;;;;;;13.80;12.40;;;;;23.31;51.86;100501.28;4976954;28;45416;-54
2022/09/13 01:32:14;;;;;;;;;18.40;12.40;;;;;23.30;51.95;100513.22;4977103;28;45425;-59
2022/09/13 01:34:52;;;;;;;;;12.25;11.50;;;;;23.29;51.72;100502.56;4977283;28;45268;-63
2022/09/13 01:37:30;;;;;;;;;13.50;12.00;;;;;23.28;52.08;100504.47;4976997;28;46192;-60
2022/09/13 01:40:16;;;;;;;;;14.00;11.80;;;;;23.27;52.20;100500.09;4976644;28;45326;-61
2022/09/13 01:42:46;;;;;;;;;14.40;12.00;;;;;23.27;52.21;100500.09;4977189;28;45461;-60
2022/09/13 01:45:22;;;;;;;;;14.25;13.00;;;;;23.26;51.70;100497.59;4977032;28;45326;-52
2022/09/13 01:48:03;;;;;;;;;17.00;14.50;;;;;23.24;51.94;100484.28;4978299;28;45445;-61
2022/09/13 01:50:44;;;;;;;;;16.00;12.40;;;;;23.24;52.23;100486.19;4976821;28;45424;-58
2022/09/13 01:53:32;;;;;;;;;15.50;12.50;;;;;23.11;51.50;100473.66;4976924;28;45403;-57
2022/09/13 01:56:03;;;;;;;;;16.75;13.75;;;;;23.20;51.90;100482.28;4976862;28;45316;-51
2022/09/13 01:58:38;;;;;;;;;16.25;12.25;;;;;23.15;51.49;100478.38;4976472;28;45434;-59
2022/09/13 02:01:09;;;;;;;;;12.60;11.20;;;;;23.12;51.96;100476.13;4975791;28;45314;-62
2022/09/13 02:03:41;;;;;;;;;15.75;13.75;;;;;23.12;52.21;100480.75;4976469;28;45382;-61
2022/09/13 02:06:16;;;;;;;;;16.50;14.00;;;;;23.11;52.09;100474.50;4978373;28;45570;-61
2022/09/13 02:08:46;;;;;;;;;16.50;13.00;;;;;23.11;52.55;100469.06;4976540;28;46114;-52
2022/09/13 02:11:16;;;;;;;;;16.80;13.80;;;;;23.09;52.70;100465.78;4976280;28;45176;-62
2022/09/13 02:14:15;;;;;;;;;10.75;10.50;;;;;23.08;52.79;100477.66;4976597;28;45252;-50
2022/09/13 02:17:01;;;;;;;;;13.50;11.50;;;;;23.02;52.87;100470.47;4976517;28;45336;-61
2022/09/13 02:19:42;;;;;;;;;14.00;11.80;;;;;23.00;53.04;100466.34;4976292;28;46073;-58
2022/09/13 02:22:12;;;;;;;;;13.20;12.00;;;;;22.95;52.95;100458.09;4976300;28;45269;-59
2022/09/13 02:24:44;;;;;;;;;17.75;12.25;;;;;22.93;53.27;100458.34;4976361;28;45362;-56
2022/09/13 02:27:15;;;;;;;;;13.75;11.00;;;;;22.89;53.18;100454.41;4976301;28;45257;-62
2022/09/13 02:29:46;;;;;;;;;15.00;13.25;;;;;22.84;53.84;100459.72;4976078;28;47038;-59
2022/09/13 02:32:21;;;;;;;;;12.20;10.80;;;;;22.80;53.97;100459.34;4976370;28;45219;-61
2022/09/13 02:34:58;;;;;;;;;13.25;11.25;;;;;22.78;53.99;100460.63;4976276;28;45461;-55
2022/09/13 02:37:28;;;;;;;;;8.75;8.25;;;;;22.75;53.34;100455.66;4976477;28;45319;-59
2022/09/13 02:39:58;;;;;;;;;12.00;10.50;;;;;22.72;53.59;100453.44;4975937;28;46119;-59
2022/09/13 02:42:35;;;;;;;;;10.20;9.00;;;;;22.68;53.36;100453.09;4976077;28;45763;-60
2022/09/13 02:45:01;;;;;;;;;10.80;9.00;;;;;22.66;53.59;100450.59;4976120;28;45472;-54
2022/09/13 02:48:09;;;;;;;;;10.00;8.00;;;;;22.65;53.44;100448.94;4976432;28;45385;-63
2022/09/13 02:50:48;;;;;;;;;8.00;6.60;;;;;22.65;53.39;100448.94;4975904;28;47147;-59
2022/09/13 02:53:34;;;;;;;;;9.00;8.00;;;;;22.61;53.33;100436.09;4975841;28;45493;-57
2022/09/13 02:56:13;;;;;;;;;8.40;6.80;;;;;22.60;53.29;100432.56;4975981;28;45353;-60
2022/09/13 02:58:59;;;;;;;;;7.00;7.00;;;;;22.65;53.31;100440.81;4976318;28;45279;-63
2022/09/13 03:01:25;;;;;;;;;7.00;6.20;;;;;22.67;53.79;100436.00;4975725;28;45631;-56
2022/09/13 03:03:52;;;;;;;;;9.75;7.50;;;;;22.65;53.75;100438.09;4975634;28;45425;-59
2022/09/13 03:06:25;;;;;;;;;8.00;6.40;;;;;22.68;53.34;100444.94;4974511;28;45437;-56
2022/09/13 03:08:53;;;;;;;;;9.25;9.00;;;;;22.67;53.66;100437.88;4976343;28;45228;-53
2022/09/13 03:11:45;;;;;;;;;9.75;8.25;;;;;22.68;53.36;100434.09;4975519;28;45390;-62
2022/09/13 03:14:17;;;;;;;;;7.00;7.00;;;;;22.69;53.38;100426.78;4975799;28;45447;-60
2022/09/13 03:17:14;;;;;;;;;5.80;5.80;;;;;22.66;53.15;100423.47;4975714;28;45392;-60
2022/09/13 03:19:58;;;;;;;;;6.25;6.25;;;;;22.66;53.07;100431.63;5035752;28;45472;-59
2022/09/13 03:22:39;;;;;;;;;7.80;6.20;;;;;22.64;52.47;100430.22;5035575;28;45427;-61
2022/09/13 03:25:12;;;;;;;;;8.00;6.80;;;;;22.65;52.81;100432.69;5035547;28;45423;-53
2022/09/13 03:27:55;;;;;;;;;6.00;6.00;;;;;22.65;53.25;100427.25;5035691;28;45448;-56
2022/09/13 03:30:20;;;;;;;;;6.50;6.50;;;;;22.57;52.95;100416.75;5036003;28;45417;-59
2022/09/13 03:32:58;;;;;;;;;7.00;7.00;;;;;22.63;53.10;100432.09;5035589;28;46002;-58
2022/09/13 03:35:39;;;;;;;;;8.80;7.80;;;;;22.64;52.75;100438.34;5035536;28;45411;-60
2022/09/13 03:38:23;;;;;;;;;10.60;7.00;;;;;22.64;53.32;100438.34;5035685;28;45474;-48
2022/09/13 03:40:54;;;;;;;;;8.00;8.00;;;;;22.63;53.15;100431.28;5035761;28;45426;-53
2022/09/13 03:43:37;;;;;;;;;9.60;7.60;;;;;22.65;53.63;100442.69;5035237;28;47077;-62
2022/09/13 03:46:17;;;;;;;;;5.00;5.00;;;;;22.64;53.49;100441.88;5035426;28;45440;-61
2022/09/13 03:48:43;;;;;;;;;7.40;5.80;;;;;22.66;53.38;100439.75;5035368;28;45404;-49
2022/09/13 03:51:10;;;;;;;;;4.75;4.75;;;;;22.68;53.40;100439.53;5035521;28;45484;-55
2022/09/13 03:53:42;;;;;;;;;8.50;7.00;;;;;22.69;53.32;100443.06;5035091;28;47727;-51
2022/09/13 03:56:13;;;;;;;;;8.00;6.00;;;;;22.69;53.28;100437.66;4983759;28;45487;-61
2022/09/13 03:58:39;;;;;;;;;7.60;6.20;;;;;22.69;53.91;100443.88;4976713;28;45433;-60
2022/09/13 04:01:04;;;;;;;;;6.25;6.25;;;;;22.68;53.72;100434.09;4975518;28;45355;-52
2022/09/13 04:03:29;;;;;;;;;6.50;6.25;;;;;22.65;53.95;100421.84;4974945;28;47057;-54
2022/09/13 04:05:55;;;;;;;;;9.25;7.75;;;;;22.65;54.30;100429.16;4975228;28;45330;-52
2022/09/13 04:08:20;;;;;;;;;7.25;6.75;;;;;22.64;54.02;100435.63;4975134;28;45448;-50
2022/09/13 04:10:50;;;;;;;;;3.75;3.75;;;;;22.63;53.89;100448.38;4975183;28;45393;-54
2022/09/13 04:13:16;;;;;;;;;5.00;5.00;;;;;22.61;53.61;100450.47;4974800;28;46139;-54
2022/09/13 04:15:41;;;;;;;;;8.50;5.25;;;;;22.53;54.28;100425.59;4974970;28;45288;-63
2022/09/13 04:18:07;;;;;;;;;6.75;5.50;;;;;22.65;54.20;100440.00;4975170;28;45425;-60
2022/09/13 04:20:34;;;;;;;;;6.50;5.00;;;;;22.66;53.84;100428.06;4975232;28;45526;-57
2022/09/13 04:23:00;;;;;;;;;8.25;6.75;;;;;22.65;54.05;100419.13;4973963;28;46357;-51
2022/09/13 04:25:25;;;;;;;;;7.50;4.00;;;;;22.65;54.02;100431.84;4974938;28;45409;-48
2022/09/13 04:27:54;;;;;;;;;4.25;4.25;;;;;22.66;53.92;100436.22;4974957;28;45363;-53
2022/09/13 04:30:20;;;;;;;;;4.50;4.00;;;;;22.65;53.58;100448.94;4975016;28;45292;-53
2022/09/13 04:32:46;;;;;;;;;3.80;3.80;;;;;22.69;53.25;100464.75;4974713;28;45295;-55
2022/09/13 04:35:11;;;;;;;;;5.00;5.00;;;;;22.64;53.46;100443.78;4974745;28;45212;-50
2022/09/13 04:37:37;;;;;;;;;7.75;4.25;;;;;22.71;53.59;100449.06;4974951;28;45398;-51
2022/09/13 04:40:06;;;;;;;;;4.50;4.50;;;;;22.65;53.82;100427.25;4974480;28;45399;-51
2022/09/13 04:42:31;;;;;;;;;7.00;5.40;;;;;22.72;54.16;100427.16;4976214;27;45492;-52
2022/09/13 04:44:57;;;;;;;;;7.00;6.00;;;;;22.71;53.90;100440.94;4974494;28;45327;-54
2022/09/13 04:47:22;;;;;;;;;7.00;5.00;;;;;22.69;53.94;100443.88;4974807;28;45511;-52
2022/09/13 04:49:48;;;;;;;;;7.00;5.00;;;;;22.70;54.07;100440.09;4974926;28;45461;-53
2022/09/13 04:52:13;;;;;;;;;6.75;6.00;;;;;22.69;54.27;100432.22;4974527;28;45993;-50
2022/09/13 04:54:38;;;;;;;;;6.00;4.75;;;;;22.70;54.06;100444.72;4974518;28;45326;-50
2022/09/13 04:57:05;;;;;;;;;5.00;5.00;;;;;22.65;54.12;100448.94;4974534;28;45384;-51
2022/09/13 04:59:30;;;;;;;;;5.75;5.75;;;;;22.66;54.61;100452.47;4974609;28;45365;-49
2022/09/13 05:01:56;;;;;;;;;5.50;5.25;;;;;22.65;54.85;100458.97;4974080;28;45963;-50
2022/09/13 05:04:21;;;;;;;;;7.50;5.75;;;;;22.63;54.67;100453.78;4974363;28;45322;-51
2022/09/13 05:06:47;;;;;;;;;5.00;5.00;;;;;22.61;54.77;100439.63;4974262;28;45290;-50
2022/09/13 05:09:13;;;;;;;;;6.00;6.00;;;;;22.61;54.91;100436.09;4974520;28;45537;-51
2022/09/13 05:11:40;;;;;;;;;9.00;6.50;;;;;22.58;55.30;100429.25;4973844;28;46160;-52
2022/09/13 05:14:05;;;;;;;;;6.60;6.00;;;;;22.56;55.56;100427.84;4974239;28;45417;-48
2022/09/13 05:16:32;;;;;;;;;6.00;6.00;;;;;22.53;55.29;100422.88;4974351;28;45358;-51
2022/09/13 05:18:58;;;;;;;;;5.25;5.25;;;;;22.54;55.17;100444.31;4974214;28;45430;-48
2022/09/13 05:21:24;;;;;;;;;5.60;5.60;;;;;22.51;55.09;100461.06;4972719;28;46981;-48
2022/09/13 05:23:51;;;;;;;;;6.20;4.40;;;;;22.44;55.25;100456.81;4973866;28;45288;-51
2022/09/13 05:26:17;;;;;;;;;7.00;5.60;;;;;22.50;55.05;100467.56;4975790;28;45289;-53
2022/09/13 05:28:42;;;;;;;;;7.00;4.75;;;;;22.51;54.72;100463.78;4974145;28;45422;-57
2022/09/13 05:31:32;;;;;;;;;8.25;6.00;;;;;22.49;54.65;100446.91;4973821;28;46291;-56
2022/09/13 05:34:00;;;;;;;;;7.40;5.20;;;;;22.52;55.29;100451.06;5033776;28;45380;-49
2022/09/13 05:36:25;;;;;;;;;9.40;5.20;;;;;22.50;55.18;100455.88;5036120;28;45470;-46
2022/09/13 05:38:53;;;;;;;;;9.75;6.00;;;;;22.50;54.67;100448.59;5037204;28;45369;-54
2022/09/13 05:41:18;;;;;;;;;6.75;6.00;;;;;22.50;55.27;100447.72;5037198;28;45466;-49
2022/09/13 05:43:43;;;;;;;;;6.25;5.00;;;;;22.50;54.91;100455.88;5037229;28;45422;-56
2022/09/13 05:46:11;;;;;;;;;7.50;5.00;;;;;22.47;55.19;100449.03;5038145;28;45447;-50
2022/09/13 05:48:38;;;;;;;;;8.25;4.50;;;;;22.50;55.23;100450.44;5038050;28;45373;-53
2022/09/13 05:51:15;;;;;;;;;5.50;4.75;;;;;22.52;54.84;100451.06;5037785;28;47048;-51
2022/09/13 05:53:43;;;;;;;;;6.40;6.40;;;;;22.52;54.89;100454.59;5037745;28;45272;-52
2022/09/13 05:56:13;;;;;;;;;8.60;6.20;;;;;22.54;55.20;100460.59;5037201;28;45447;-49
2022/09/13 05:58:43;;;;;;;;;6.00;5.00;;;;;22.44;55.13;100437.84;5037458;28;45672;-50
2022/09/13 06:01:09;;;;;;;;;6.25;5.25;;;;;22.51;56.16;100452.13;5036844;28;45460;-49
2022/09/13 06:03:35;;;;;;;;;4.20;4.20;;;;;22.56;54.82;100450.34;5036720;28;45381;-54
2022/09/13 06:06:01;;;;;;;;;5.20;5.00;;;;;22.55;54.81;100447.88;5037090;28;45533;-56
2022/09/13 06:08:29;;;;;;;;;7.00;5.75;;;;;22.56;55.29;100452.25;5036988;28;45337;-51
2022/09/13 06:10:59;;;;;;;;;7.80;5.80;;;;;22.57;55.03;100443.03;5007552;28;47531;-51
2022/09/13 06:13:25;;;;;;;;;8.20;7.00;;;;;22.57;55.15;100441.16;4976399;28;45356;-53
2022/09/13 06:15:51;;;;;;;;;6.20;6.20;;;;;22.60;54.92;100445.28;4976389;28;45328;-49
2022/09/13 06:18:17;;;;;;;;;5.75;5.00;;;;;22.59;54.91;100440.94;4976742;28;45314;-52
2022/09/13 06:20:42;;;;;;;;;3.00;3.00;;;;;22.58;54.37;100441.97;4976261;28;46188;-48
2022/09/13 06:23:08;;;;;;;;;9.00;6.00;;;;;22.55;54.58;100435.16;4976203;28;45193;-52
2022/09/13 06:25:33;;;;;;;;;6.50;5.50;;;;;22.60;54.61;100445.28;4976281;28;45371;-47
2022/09/13 06:27:59;;;;;;;;;5.25;5.25;;;;;22.62;54.57;100433.13;4976389;28;45447;-54
2022/09/13 06:30:24;;;;;;;;;5.50;5.50;;;;;22.65;54.57;100421.84;4976302;28;46044;-49
2022/09/13 06:32:49;;;;;;;;;6.00;6.00;;;;;22.64;54.02;100412.06;4976150;28;45211;-60
2022/09/13 06:35:15;;;;;;;;;6.00;5.00;;;;;22.71;53.95;100414.63;4976578;28;45478;-53
2022/09/13 06:37:41;;;;;;;;;8.00;5.00;;;;;22.76;53.98;100408.53;4976214;28;45220;-56
2022/09/13 06:40:06;;;;;;;;;5.75;5.00;;;;;22.82;54.05;100399.44;4975895;28;46353;-58
2022/09/13 06:42:35;;;;;;;;;5.25;4.00;;;;;22.90;53.52;100391.00;4975921;28;45532;-51
2022/09/13 06:45:02;;;;;;;;;6.00;4.00;;;;;22.89;53.12;100378.47;4975949;28;45362;-51
2022/09/13 06:47:27;;;;;;;;;6.60;4.00;;;;;22.96;52.79;100379.19;4976011;28;45377;-52
2022/09/13 06:49:52;;;;;;;;;6.75;4.75;;;;;23.07;52.55;100372.94;4975881;28;46118;-54
2022/09/13 06:52:18;;;;;;;;;8.50;6.50;;;;;23.18;52.34;100381.31;4976013;28;45394;-51
2022/09/13 06:54:43;;;;;;;;;5.00;5.00;;;;;23.20;52.37;100377.28;4976186;28;45363;-51
2022/09/13 06:57:08;;;;;;;;;5.00;3.50;;;;;23.24;52.15;100377.63;4976334;28;45378;-55
2022/09/13 06:59:34;;;;;;;;;7.75;7.00;;;;;23.26;52.47;100370.06;4975829;28;46277;-52
2022/09/13 07:02:00;;;;;;;;;5.00;5.00;;;;;22.81;52.34;100295.56;4992660;28;45431;-53
2022/09/13 07:04:30;;;;;;;;;5.50;4.00;;;;;23.20;52.50;100350.13;4995146;28;45385;-51
2022/09/13 07:06:56;;;;;;;;;5.75;5.00;;;;;23.21;52.54;100353.66;4995339;28;45264;-56
2022/09/13 07:09:21;;;;;;;;;7.60;6.40;;;;;23.16;52.31;100347.06;5044965;28;45449;-53
2022/09/13 07:11:48;;;;;;;;;8.00;6.75;;;;;23.13;52.30;100344.84;4982912;27;45904;-51
2022/09/13 07:14:17;;;;;;;;;5.40;4.80;;;;;23.13;52.58;100347.56;5049593;28;45664;-50
2022/09/13 07:16:42;;;;;;;;;4.00;4.00;;;;;23.12;52.68;100345.91;5029902;27;45498;-48
2022/09/13 07:19:16;;;;;;;;;7.75;4.25;;;;;23.12;52.84;100345.91;4973700;28;46268;-48
2022/09/13 07:21:42;;;;;;;;;7.20;5.60;;;;;23.14;53.04;100346.50;4974550;28;45340;-52
2022/09/13 07:24:08;;;;;;;;;5.80;5.80;;;;;23.19;52.92;100351.22;4974674;28;45340;-48
2022/09/13 07:26:33;;;;;;;;;5.60;4.60;;;;;23.24;52.59;100347.78;4974495;28;45745;-51
2022/09/13 07:29:02;;;;;;;;;8.25;6.75;;;;;23.28;52.44;100341.63;4975778;28;46120;-47
2022/09/13 07:31:33;;;;;;;;;3.60;3.60;;;;;23.35;52.22;100336.06;4974204;28;45541;-51
2022/09/13 07:34:00;;;;;;;;;5.40;4.60;;;;;23.41;52.16;100344.06;4976068;28;45494;-50
2022/09/13 07:36:28;;;;;;;;;5.00;5.00;;;;;23.52;51.98;100339.66;4974718;28;45443;-50
2022/09/13 07:38:54;;;;;;;;;8.00;5.60;;;;;23.65;51.93;100338.59;4973814;28;45469;-52
2022/09/13 07:41:21;;;;;;;;;6.00;4.50;;;;;23.80;51.69;100346.19;4974238;28;45497;-53
2022/09/13 07:43:47;;;;;;;;;5.20;5.00;;;;;23.89;51.57;100353.72;4974129;28;45454;-59
2022/09/13 07:46:16;;;;;;;;;5.40;5.00;;;;;24.00;51.25;100351.16;4974407;28;45442;-53
2022/09/13 07:48:43;;;;;;;;;6.00;5.60;;;;;24.04;50.54;100347.69;4973873;28;47065;-52
2022/09/13 07:51:08;;;;;;;;;4.00;4.00;;;;;24.06;51.01;100355.59;4974034;28;45536;-52
2022/09/13 07:53:35;;;;;;;;;6.75;6.75;;;;;24.03;51.38;100358.84;4973826;28;45556;-50
2022/09/13 07:56:04;;;;;;;;;6.40;6.40;;;;;23.99;51.12;100354.94;4975036;28;45608;-53
2022/09/13 07:58:32;;;;;;;;;7.00;6.60;;;;;23.95;51.24;100354.63;4972838;28;46304;-51
2022/09/13 08:01:04;;;;;;;;;4.40;4.40;;;;;23.87;50.81;100357.72;4974131;28;45382;-48
2022/09/13 08:03:29;;;;;;;;;6.60;6.60;;;;;23.91;51.21;100358.88;4980364;28;45493;-49
2022/09/13 08:05:55;;;;;;;;;7.00;6.00;;;;;23.93;51.08;100362.16;5058545;27;45512;-57
2022/09/13 08:08:21;;;;;;;;;6.00;6.00;;;;;23.99;51.12;100361.22;5035832;28;46154;-52
2022/09/13 08:10:46;;;;;;;;;5.50;5.50;;;;;24.02;50.93;100362.59;5073369;27;45498;-51
2022/09/13 08:13:11;;;;;;;;;5.00;5.00;;;;;24.09;50.95;100360.56;5073235;27;45766;-49
2022/09/13 08:15:37;;;;;;;;;7.25;7.00;;;;;24.18;50.39;100363.69;5073622;27;45837;-50
2022/09/13 08:18:04;;;;;;;;;3.50;3.50;;;;;24.19;50.45;100363.47;5073334;27;46199;-52
2022/09/13 08:20:29;;;;;;;;;6.20;6.20;;;;;24.17;50.42;100359.34;5073378;28;45366;-51
2022/09/13 08:22:55;;;;;;;;;5.25;4.75;;;;;24.20;50.82;100359.66;5073074;27;46732;-48
2022/09/13 08:25:20;;;;;;;;;5.75;5.75;;;;;24.23;50.65;100361.91;5072704;27;45421;-50
2022/09/13 08:27:45;;;;;;;;;4.00;4.00;;;;;24.24;50.70;100354.56;5073302;27;46032;-51
2022/09/13 08:30:11;;;;;;;;;5.00;5.00;;;;;24.26;50.71;100355.13;5072647;27;45747;-51
2022/09/13 08:32:37;;;;;;;;;5.80;4.40;;;;;24.22;51.21;100354.78;5072805;27;45468;-51
2022/09/13 08:35:02;;;;;;;;;5.25;5.25;;;;;24.14;50.74;100344.31;5072671;27;46361;-51
2022/09/13 08:37:28;;;;;;;;;6.25;4.75;;;;;24.19;50.63;100354.47;5072911;27;45925;-50
2022/09/13 08:39:53;;;;;;;;;6.00;3.00;;;;;24.10;50.57;100352.19;5073255;27;45722;-49
2022/09/13 08:42:28;;;;;;;;;2.50;2.50;;;;;24.11;50.56;100356.53;5073218;27;45437;-50
2022/09/13 08:44:56;;;;;;;;;6.80;5.40;;;;;24.13;50.89;100362.53;5052963;27;46031;-50
2022/09/13 08:47:31;;;;;;;;;6.60;4.40;;;;;23.90;50.68;100330.91;5061990;28;46054;-55
2022/09/13 08:50:17;;;;;;;;;4.40;4.40;;;;;24.17;51.27;100384.63;5072569;27;45507;-50
2022/09/13 08:53:04;;;;;;;;;7.60;4.00;;;;;24.26;51.00;100390.47;5073013;27;45370;-49
2022/09/13 08:56:11;;;;;;;;;5.00;5.00;;;;;24.28;51.13;100400.03;4990327;27;45394;-48
2022/09/13 08:58:48;;;;;;;;;6.60;4.00;;;;;24.30;51.13;100405.22;4972809;28;45540;-47
2022/09/13 09:01:32;;;;;;;;;3.80;3.00;;;;;24.30;50.80;100400.59;4971520;28;45519;-51
2022/09/13 09:04:03;;;;;;;;;3.40;3.40;;;;;24.37;50.97;100395.03;4972926;28;45447;-50
2022/09/13 09:06:29;;;;;;;;;3.20;3.20;;;;;24.36;50.71;100387.94;4973358;28;45292;-48
2022/09/13 09:09:04;;;;;;;;;5.00;5.00;;;;;24.57;50.55;100400.00;4972922;28;45365;-49
2022/09/13 09:11:53;;;;;;;;;5.00;5.00;;;;;24.77;50.28;100394.84;4976014;28;45481;-51
2022/09/13 09:14:40;;;;;;;;;4.00;3.80;;;;;25.05;49.83;100402.09;4976017;28;45449;-48
2022/09/13 09:17:13;;;;;;;;;5.20;5.00;;;;;25.16;49.00;100413.13;4976207;28;45847;-55
2022/09/13 09:20:00;;;;;;;;;3.60;3.60;;;;;25.09;49.23;100425.03;4976914;28;45419;-53
2022/09/13 09:22:33;;;;;;;;;4.00;3.00;;;;;25.05;49.92;100431.19;4976123;28;45453;-54
2022/09/13 09:24:59;;;;;;;;;3.20;3.00;;;;;24.96;49.83;100429.97;4976113;28;45413;-52
2022/09/13 09:27:25;;;;;;;;;4.60;4.60;;;;;24.89;50.07;100428.25;4976092;28;46047;-52
2022/09/13 09:29:56;;;;;;;;;4.60;4.60;;;;;24.84;49.72;100411.03;4974971;27;46332;-53
2022/09/13 09:32:31;;;;;;;;;4.00;3.80;;;;;24.79;49.95;100411.78;5002140;28;45417;-51
2022/09/13 09:35:16;;;;;;;;;8.00;4.00;;;;;24.68;50.22;100388.19;5079598;27;45420;-52
2022/09/13 09:37:49;;;;;;;;;4.80;4.80;;;;;24.80;50.09;100405.25;5079734;27;45427;-53
2022/09/13 09:40:16;;;;;;;;;7.20;5.00;;;;;24.98;50.83;100415.03;5095265;27;46628;-53
2022/09/13 09:42:44;;;;;;;;;5.20;5.20;;;;;25.07;49.94;100416.28;5079928;27;45261;-49
2022/09/13 09:45:18;;;;;;;;;4.60;4.60;;;;;25.12;49.98;100413.66;5079497;27;45451;-48
2022/09/13 09:47:46;;;;;;;;;8.60;6.60;;;;;25.12;50.45;100419.09;5078450;27;45442;-50
2022/09/13 09:50:27;;;;;;;;;7.20;6.40;;;;;25.15;50.26;100431.38;5079490;27;45271;-52
2022/09/13 09:53:13;;;;;;;;;5.80;5.80;;;;;25.13;50.11;100423.47;5079528;27;45369;-52
2022/09/13 09:55:50;;;;;;;;;7.40;6.00;;;;;25.05;49.96;100423.84;5080054;27;45319;-52
2022/09/13 09:58:17;;;;;;;;;6.00;6.00;;;;;25.00;50.22;100423.78;5079674;27;45543;-52
2022/09/13 10:00:57;;;;;;;;;7.20;4.80;;;;;24.88;50.31;100409.47;5079323;27;45441;-48
2022/09/13 10:03:28;;;;;;;;;4.80;4.60;;;;;25.02;50.24;100434.41;5079353;27;45306;-53
2022/09/13 10:06:12;;;;;;;;;5.00;5.00;;;;;25.01;50.22;100432.78;5079568;27;45316;-52
2022/09/13 10:08:40;;;;;;;;;7.60;6.00;;;;;25.08;49.96;100433.44;5079746;27;45309;-50
2022/09/13 10:11:07;;;;;;;;;4.80;3.20;;;;;25.20;49.79;100436.91;5079177;27;46111;-53
2022/09/13 10:13:33;;;;;;;;;7.60;5.20;;;;;25.34;49.89;100442.81;5079066;27;45363;-50
2022/09/13 10:16:00;;;;;;;;;6.20;4.60;;;;;25.21;48.85;100383.28;5079072;27;45569;-52
2022/09/13 10:18:28;;;;;;;;;4.00;4.00;;;;;25.74;48.85;100434.31;5079478;27;45504;-54
2022/09/13 10:21:07;;;;;;;;;7.00;5.80;;;;;25.78;48.72;100432.75;5078618;27;46385;-53
2022/09/13 10:23:34;;;;;;;;;3.80;3.80;;;;;25.86;48.32;100435.03;5079326;27;45426;-51
2022/09/13 10:26:07;;;;;;;;;4.00;4.00;;;;;25.75;47.64;100433.25;5079251;27;45420;-51
2022/09/13 10:28:40;;;;;;;;;4.20;4.20;;;;;25.72;48.30;100432.94;5079393;27;45345;-50
2022/09/13 10:31:09;;;;;;;;;5.60;4.80;;;;;25.71;48.26;100429.38;5078331;27;46192;-51
2022/09/13 10:33:41;;;;;;;;;5.00;5.00;;;;;25.70;47.92;100435.06;5078899;27;45495;-55
2022/09/13 10:36:12;;;;;;;;;5.40;5.00;;;;;25.69;47.99;100425.25;5078514;27;45326;-53
2022/09/13 10:38:40;;;;;;;;;5.80;3.80;;;;;25.63;47.68;100414.31;5079095;27;45421;-54
2022/09/13 10:41:10;;;;;;;;;6.20;4.80;;;;;25.68;47.72;100419.00;5078392;27;45439;-54
2022/09/13 10:43:36;;;;;;;;;4.60;4.60;;;;;25.75;48.10;100413.38;5078675;27;45331;-51
2022/09/13 10:46:05;;;;;;;;;4.60;4.00;;;;;25.83;47.58;100418.34;5078845;27;45399;-54
2022/09/13 10:48:44;;;;;;;;;4.00;4.00;;;;;25.91;47.58;100406.19;5078801;27;45302;-53
2022/09/13 10:51:24;;;;;;;;;5.20;4.80;;;;;25.96;47.94;100404.34;5078536;27;47128;-55
2022/09/13 10:53:51;;;;;;;;;8.00;5.00;;;;;26.31;47.48;100401.13;5078694;28;45261;-55
2022/09/13 10:56:24;;;;;;;;;4.40;4.40;;;;;26.64;46.06;100401.19;5078540;27;45482;-51
2022/09/13 10:58:49;;;;;;;;;6.00;5.00;;;;;26.81;45.83;100407.28;5078749;27;45437;-52
2022/09/13 11:01:33;;;;;;;;;11.00;11.00;;;;;26.97;46.01;100403.59;5078181;28;45851;-52
2022/09/13 11:04:32;;;;;;;;;5.40;5.00;;;;;27.14;45.28;100394.41;5078448;27;45545;-51
2022/09/13 11:07:06;;;;;;;;;6.00;6.00;;;;;27.39;45.00;100383.63;5078586;27;45370;-53
2022/09/13 11:09:55;;;;;;;;;4.00;4.00;;;;;27.80;44.22;100364.63;5078673;27;45314;-54
2022/09/13 11:12:37;;;;;;;;;4.40;4.40;;;;;27.87;43.77;100370.66;5078374;27;45401;-55
2022/09/13 11:15:14;;;;;;;;;5.40;5.00;;;;;27.85;43.55;100368.22;5078156;27;45586;-58
2022/09/13 11:18:08;;;;;;;;;4.20;3.60;;;;;27.87;44.21;100384.34;5078385;27;45494;-56
2022/09/13 11:20:51;;;;;;;;;6.40;6.40;;;;;27.87;43.31;100380.78;5078528;27;45226;-56
2022/09/13 11:23:51;;;;;;;;;2.00;2.00;;;;;28.10;43.78;100369.31;5078173;28;46394;-58
2022/09/13 11:26:34;;;;;;;;;4.80;4.00;;;;;28.23;42.42;100370.69;4955966;28;45494;-54
2022/09/13 11:29:24;;;;;;;;;5.40;5.40;;;;;28.31;42.42;100373.72;4956962;28;45417;-54
2022/09/13 11:32:15;;;;;;;;;4.20;4.20;;;;;28.54;42.37;100366.91;4956182;28;45388;-53
2022/09/13 11:35:13;;;;;;;;;3.60;3.60;;;;;28.60;42.23;100373.19;4954881;28;45328;-53
2022/09/13 11:37:38;;;;;;;;;5.40;5.40;;;;;28.48;42.05;100361.69;4955736;28;45473;-56
2022/09/13 11:40:33;;;;;;;;;5.00;4.00;;;;;28.30;42.32;100357.59;4956845;28;45402;-50
2022/09/13 11:43:23;;;;;;;;;3.80;3.80;;;;;28.06;41.97;100360.88;4955385;28;45514;-57